Time;durP1;ratioP1;P1;durP2;ratioP2;P2;SDS_P1;SDS_P2;PMS_P1;PMS_P2;Temp;Humidity;BMP_temperature;BMP_pressure;BME280_temperature;BME280_humidity;BME280_pressure;Samples;Min_cycle;Max_cycle;Signal;HPM_P1;HPM_P2
2022/02/26 00:00:55;;;;;;;52.65;6.50;;;;;;;3.03;100.00;102447.44;4972803;28;20072;-77
2022/02/26 00:03:20;;;;;;;57.83;6.53;;;;;;;3.17;100.00;102441.75;5003980;28;21033;-77
2022/02/26 00:05:47;;;;;;;58.33;6.03;;;;;;;3.17;100.00;102465.09;4984700;28;20434;-76
2022/02/26 00:08:15;;;;;;;52.95;6.57;;;;;;;3.06;100.00;102464.63;5001355;28;20045;-76
2022/02/26 00:10:41;;;;;;;47.80;6.35;;;;;;;2.86;100.00;102467.94;5004218;28;20049;-76
2022/02/26 00:13:07;;;;;;;56.13;6.63;;;;;;;2.90;100.00;102472.97;4978444;28;20104;-75
2022/02/26 00:15:32;;;;;;;66.35;6.88;;;;;;;2.80;100.00;102473.34;4994328;28;20038;-76
2022/02/26 00:18:00;;;;;;;50.85;7.40;;;;;;;2.74;100.00;102476.97;5000816;28;20038;-75
2022/02/26 00:20:26;;;;;;;52.58;6.20;;;;;;;2.71;100.00;102469.31;4989809;28;20030;-77
2022/02/26 00:22:52;;;;;;;50.83;6.07;;;;;;;2.68;100.00;102470.28;5003644;28;20128;-76
2022/02/26 00:25:17;;;;;;;44.97;6.15;;;;;;;2.52;100.00;102475.16;4989715;28;20510;-77
2022/02/26 00:27:43;;;;;;;57.38;6.70;;;;;;;2.42;100.00;102475.50;4969789;28;20121;-76
2022/02/26 00:30:10;;;;;;;54.28;6.35;;;;;;;2.36;100.00;102480.88;4972207;28;20165;-77
2022/02/26 00:32:35;;;;;;;58.72;7.68;;;;;;;2.30;100.00;102481.94;4971265;28;20523;-75
2022/02/26 00:35:01;;;;;;;48.55;6.88;;;;;;;2.22;100.00;102494.25;5002124;28;20069;-77
2022/02/26 00:37:27;;;;;;;57.53;7.00;;;;;;;2.11;100.00;102492.88;5002516;28;20037;-73
2022/02/26 00:39:53;;;;;;;53.85;5.97;;;;;;;2.06;100.00;102497.34;4984977;28;20035;-76
2022/02/26 00:42:19;;;;;;;65.43;7.13;;;;;;;2.17;100.00;102502.19;4998345;28;20034;-75
2022/02/26 00:44:45;;;;;;;57.25;7.18;;;;;;;2.04;100.00;102506.91;4990594;28;20081;-77
2022/02/26 00:47:10;;;;;;;52.67;6.60;;;;;;;2.06;100.00;102507.69;5002184;28;20042;-76
2022/02/26 00:49:47;;;;;;;52.92;6.88;;;;;;;1.91;100.00;102506.44;4971147;28;20085;-75
2022/02/26 00:52:21;;;;;;;53.53;7.53;;;;;;;1.98;100.00;102525.22;5000494;28;20395;-76
2022/02/26 00:54:47;;;;;;;64.25;6.43;;;;;;;2.06;100.00;102530.16;4961655;28;20046;-75
2022/02/26 00:57:13;;;;;;;63.97;6.47;;;;;;;2.00;100.00;102533.78;4986342;28;20037;-75
2022/02/26 00:59:38;;;;;;;61.30;7.25;;;;;;;1.98;100.00;102526.94;4990068;28;20037;-75
2022/02/26 01:02:06;;;;;;;63.38;6.97;;;;;;;2.04;100.00;102539.72;4998993;28;20050;-75
2022/02/26 01:04:34;;;;;;;64.03;5.68;;;;;;;2.04;100.00;102532.78;4986152;28;20377;-78
2022/02/26 01:06:59;;;;;;;47.17;6.15;;;;;;;2.10;100.00;102548.13;4993532;28;20089;-77
2022/02/26 01:09:25;;;;;;;55.90;5.97;;;;;;;2.07;100.00;102539.59;4986556;28;20080;-75
2022/02/26 01:11:51;;;;;;;60.33;7.13;;;;;;;2.05;100.00;102543.97;4968692;28;20729;-76
2022/02/26 01:14:18;;;;;;;55.30;5.90;;;;;;;1.92;100.00;102552.13;4975183;28;20399;-75
2022/02/26 01:16:44;;;;;;;56.20;5.88;;;;;;;1.98;100.00;102564.03;4973806;28;20097;-77
2022/02/26 01:19:09;;;;;;;69.10;6.97;;;;;;;2.03;100.00;102563.88;4972538;28;20122;-74
2022/02/26 01:21:35;;;;;;;62.47;7.07;;;;;;;1.95;100.00;102553.78;4989351;28;20073;-77
2022/02/26 01:24:01;;;;;;;54.17;5.75;;;;;;;1.97;100.00;102577.88;4987950;28;20038;-75
2022/02/26 01:26:27;;;;;;;57.03;6.93;;;;;;;1.97;100.00;102574.44;4997473;28;20510;-75
2022/02/26 01:28:53;;;;;;;50.20;5.60;;;;;;;1.90;100.00;102578.94;4984282;28;20039;-75
2022/02/26 01:31:18;;;;;;;60.20;6.53;;;;;;;1.95;100.00;102582.25;4984156;28;20050;-78
2022/02/26 01:33:45;;;;;;;50.75;6.07;;;;;;;1.86;100.00;102585.94;4988876;28;20136;-77
2022/02/26 01:36:10;;;;;;;52.85;6.70;;;;;;;1.82;100.00;102584.34;5002194;28;20041;-76
2022/02/26 01:38:36;;;;;;;59.45;5.70;;;;;;;1.75;100.00;102585.41;5007809;28;20491;-77
2022/02/26 01:41:05;;;;;;;58.45;6.60;;;;;;;1.69;100.00;102583.00;4976691;28;20040;-76
2022/02/26 01:43:33;;;;;;;60.60;6.82;;;;;;;1.71;100.00;102594.16;4997342;28;20601;-74
2022/02/26 01:46:00;;;;;;;65.28;7.70;;;;;;;1.64;100.00;102593.50;4967966;28;20555;-79
2022/02/26 01:48:26;;;;;;;53.92;6.05;;;;;;;1.55;100.00;102593.75;4989096;28;20038;-76
2022/02/26 01:50:53;;;;;;;53.00;6.45;;;;;;;1.47;100.00;102580.16;5005360;28;20457;-75
2022/02/26 01:53:19;;;;;;;47.75;6.75;;;;;;;1.48;100.00;102598.22;4986794;28;20135;-75
2022/02/26 01:55:45;;;;;;;58.10;7.13;;;;;;;1.41;100.00;102604.44;4979636;28;20688;-75
2022/02/26 01:58:10;;;;;;;65.53;5.93;;;;;;;1.52;100.00;102606.75;4973446;28;20038;-76
2022/02/26 02:00:37;;;;;;;54.33;5.88;;;;;;;1.39;100.00;102611.41;5005104;28;20484;-77
2022/02/26 02:03:03;;;;;;;68.45;7.18;;;;;;;1.49;100.00;102601.69;4974713;28;20840;-76
2022/02/26 02:05:31;;;;;;;61.05;8.35;;;;;;;1.42;100.00;102618.25;4991093;28;20037;-76
2022/02/26 02:08:01;;;;;;;59.42;6.30;;;;;;;1.51;100.00;102623.19;4987740;28;20038;-77
2022/02/26 02:10:27;;;;;;;71.55;7.43;;;;;;;1.49;100.00;102624.97;4991730;28;20483;-76
2022/02/26 02:12:52;;;;;;;55.15;6.40;;;;;;;1.49;100.00;102630.97;5009106;28;20033;-77
2022/02/26 02:15:36;;;;;;;55.65;6.32;;;;;;;1.50;100.00;102635.25;4987500;28;20038;-73
2022/02/26 02:18:03;;;;;;;55.33;6.13;;;;;;;1.51;100.00;102633.53;4993749;28;20129;-76
2022/02/26 02:20:29;;;;;;;55.17;6.32;;;;;;;1.57;100.00;102635.94;4988823;28;20431;-77
2022/02/26 02:22:55;;;;;;;60.28;6.05;;;;;;;1.50;100.00;102631.81;4999158;28;20072;-76
2022/02/26 02:25:28;;;;;;;57.40;7.00;;;;;;;1.62;100.00;102649.59;4976563;28;20738;-78
2022/02/26 02:27:55;;;;;;;65.60;7.20;;;;;;;1.51;100.00;102646.47;4981838;28;20778;-79
2022/02/26 02:30:25;;;;;;;61.85;6.45;;;;;;;1.48;100.00;102647.38;5004796;28;20168;-77
2022/02/26 02:32:52;;;;;;;63.42;6.63;;;;;;;1.38;100.00;102639.91;4991184;28;20034;-79
2022/02/26 02:35:25;;;;;;;63.42;6.60;;;;;;;1.22;100.00;102652.38;5016612;28;20033;-79
2022/02/26 02:37:51;;;;;;;64.90;6.55;;;;;;;1.13;100.00;102656.03;4981750;28;20037;-76
2022/02/26 02:40:16;;;;;;;59.65;6.55;;;;;;;1.03;100.00;102657.16;4980006;28;20038;-76
2022/02/26 02:42:42;;;;;;;43.03;5.28;;;;;;;0.96;100.00;102662.47;5007800;28;20046;-75
2022/02/26 02:45:08;;;;;;;56.03;6.57;;;;;;;0.89;100.00;102663.50;4982711;28;20057;-75
2022/02/26 02:47:34;;;;;;;44.63;5.30;;;;;;;0.88;100.00;102669.56;4997928;28;20034;-76
2022/02/26 02:50:04;;;;;;;54.28;6.38;;;;;;;0.85;100.00;102676.53;5002506;28;20045;-76
2022/02/26 02:52:29;;;;;;;42.00;6.63;;;;;;;0.92;100.00;102667.75;4992032;28;20041;-76
2022/02/26 02:54:55;;;;;;;65.32;7.03;;;;;;;0.87;100.00;102691.13;4993639;28;20052;-77
2022/02/26 02:57:21;;;;;;;56.30;6.22;;;;;;;0.86;100.00;102689.41;4993724;28;20112;-78
2022/02/26 02:59:46;;;;;;;59.05;6.65;;;;;;;1.03;100.00;102686.44;4973283;28;20065;-76
2022/02/26 03:02:12;;;;;;;51.35;5.65;;;;;;;1.08;100.00;102692.34;4991144;28;20065;-77
2022/02/26 03:04:38;;;;;;;49.35;5.75;;;;;;;0.94;100.00;102689.22;5004831;28;20033;-77
2022/02/26 03:07:04;;;;;;;49.25;6.22;;;;;;;0.96;100.00;102703.84;4992724;28;20420;-78
2022/02/26 03:09:29;;;;;;;72.75;5.72;;;;;;;0.90;100.00;102703.94;4989000;28;20037;-78
2022/02/26 03:11:55;;;;;;;57.08;5.88;;;;;;;0.82;100.00;102702.44;4989700;28;20046;-77
2022/02/26 03:14:20;;;;;;;57.22;6.00;;;;;;;0.93;100.00;102709.06;4990166;28;20025;-79
2022/02/26 03:16:46;;;;;;;64.43;5.85;;;;;;;1.00;100.00;102721.81;4989203;28;20036;-78
2022/02/26 03:19:12;;;;;;;48.38;5.85;;;;;;;0.85;100.00;102721.31;4992153;28;20056;-77
2022/02/26 03:21:39;;;;;;;54.47;5.72;;;;;;;0.77;100.00;102716.31;5004863;28;20029;-76
2022/02/26 03:24:06;;;;;;;57.83;7.35;;;;;;;0.75;100.00;102717.22;4989265;28;20466;-75
2022/02/26 03:26:33;;;;;;;63.28;5.80;;;;;;;0.69;100.00;102712.22;4969161;28;20038;-77
2022/02/26 03:28:58;;;;;;;64.28;7.28;;;;;;;0.75;100.00;102714.66;4985905;28;20091;-77
2022/02/26 03:31:24;;;;;;;56.80;6.47;;;;;;;0.76;100.00;102730.13;4973648;28;20042;-75
2022/02/26 03:33:50;;;;;;;57.85;6.15;;;;;;;0.86;100.00;102710.09;4983931;28;20038;-76
2022/02/26 03:36:16;;;;;;;53.47;5.75;;;;;;;0.75;100.00;102723.28;4994067;28;20036;-78
2022/02/26 03:38:42;;;;;;;49.30;5.07;;;;;;;0.76;100.00;102727.53;5000852;28;20064;-75
2022/02/26 03:41:13;;;;;;;49.40;5.03;;;;;;;0.82;100.00;102736.88;4974767;28;20423;-77
2022/02/26 03:43:40;;;;;;;59.42;5.57;;;;;;;0.73;100.00;102726.75;5006363;28;20077;-75
2022/02/26 03:46:06;;;;;;;66.07;6.10;;;;;;;0.67;100.00;102726.88;4973117;28;20517;-77
2022/02/26 03:48:33;;;;;;;66.57;5.82;;;;;;;0.67;100.00;102747.56;4992255;28;20042;-76
2022/02/26 03:51:05;;;;;;;50.53;5.85;;;;;;;0.61;100.00;102739.94;4975324;28;20175;-75
2022/02/26 03:53:32;;;;;;;48.63;5.95;;;;;;;0.66;100.00;102751.00;4987635;28;20092;-78
2022/02/26 03:55:59;;;;;;;56.65;6.30;;;;;;;0.52;100.00;102748.72;4982463;28;20049;-77
2022/02/26 03:58:25;;;;;;;63.17;6.03;;;;;;;0.53;100.00;102763.34;4985374;28;20120;-79
2022/02/26 04:00:50;;;;;;;54.95;5.75;;;;;;;0.57;100.00;102768.41;4988756;28;20506;-75
2022/02/26 04:03:16;;;;;;;50.60;5.70;;;;;;;0.52;100.00;102777.97;4984370;28;20092;-76
2022/02/26 04:05:41;;;;;;;60.42;6.68;;;;;;;0.59;100.00;102776.13;4971643;28;20093;-76
2022/02/26 04:08:07;;;;;;;50.50;5.97;;;;;;;0.51;100.00;102789.22;4990837;28;20045;-77
2022/02/26 04:10:33;;;;;;;47.58;5.88;;;;;;;0.42;100.00;102789.38;5007961;28;20022;-75
2022/02/26 04:12:58;;;;;;;54.67;5.80;;;;;;;0.37;100.00;102793.78;5000040;28;20104;-76
2022/02/26 04:15:24;;;;;;;43.15;5.88;;;;;;;0.43;100.00;102801.41;4987023;28;20073;-78
2022/02/26 04:17:50;;;;;;;78.88;7.32;;;;;;;0.45;100.00;102801.38;4997027;28;20468;-76
2022/02/26 04:20:15;;;;;;;52.85;5.88;;;;;;;0.39;100.00;102807.50;5022513;28;20042;-76
2022/02/26 04:22:41;;;;;;;48.63;5.68;;;;;;;0.33;100.00;102816.22;4986941;28;20466;-77
2022/02/26 04:25:08;;;;;;;52.05;6.43;;;;;;;0.25;100.00;102828.44;5006403;28;20033;-76
2022/02/26 04:27:34;;;;;;;70.35;6.40;;;;;;;0.19;100.00;102834.56;5002118;28;20061;-76
2022/02/26 04:29:59;;;;;;;63.30;6.40;;;;;;;0.19;100.00;102826.81;4975110;28;20034;-76
2022/02/26 04:32:25;;;;;;;46.97;5.70;;;;;;;0.15;100.00;102835.50;5006290;28;20164;-76
2022/02/26 04:34:51;;;;;;;50.63;5.88;;;;;;;0.15;100.00;102826.88;4986204;28;20046;-76
2022/02/26 04:37:20;;;;;;;42.38;5.57;;;;;;;0.12;100.00;102842.44;4985767;28;20042;-75
2022/02/26 04:39:47;;;;;;;59.35;4.95;;;;;;;0.06;100.00;102845.13;4985175;28;20157;-79
2022/02/26 04:42:13;;;;;;;51.22;5.82;;;;;;;0.29;100.00;102847.31;4989342;28;20057;-77
2022/02/26 04:44:39;;;;;;;56.67;6.85;;;;;;;0.19;100.00;102841.47;4995915;28;20052;-75
2022/02/26 04:47:05;;;;;;;58.70;5.75;;;;;;;0.33;100.00;102854.09;4998019;28;20448;-77
2022/02/26 04:49:33;;;;;;;55.10;5.97;;;;;;;0.27;100.00;102856.81;4997901;28;20113;-77
2022/02/26 04:51:59;;;;;;;49.85;5.47;;;;;;;0.22;100.00;102864.63;5000089;28;20117;-77
2022/02/26 04:54:27;;;;;;;44.05;6.38;;;;;;;0.11;100.00;102863.97;4981968;28;20132;-77
2022/02/26 04:56:53;;;;;;;41.60;6.10;;;;;;;0.09;100.00;102857.97;4980559;28;20030;-76
2022/02/26 04:59:18;;;;;;;55.05;6.72;;;;;;;0.01;100.00;102875.34;5007838;28;20120;-77
2022/02/26 05:01:44;;;;;;;47.42;5.32;;;;;;;-0.10;100.00;102866.03;4981240;28;20125;-77
2022/02/26 05:04:10;;;;;;;51.47;6.15;;;;;;;-0.06;100.00;102879.72;4985279;28;20039;-76
2022/02/26 05:06:35;;;;;;;47.13;5.72;;;;;;;-0.05;100.00;102884.88;4981683;28;20430;-77
2022/02/26 05:09:01;;;;;;;50.40;5.90;;;;;;;-0.05;100.00;102892.59;4985695;28;20567;-76
2022/02/26 05:11:27;;;;;;;49.17;5.55;;;;;;;-0.14;100.00;102887.59;4985035;28;20073;-77
2022/02/26 05:13:52;;;;;;;50.08;6.20;;;;;;;-0.16;100.00;102893.66;5005847;28;20054;-78
2022/02/26 05:16:18;;;;;;;41.90;5.85;;;;;;;-0.15;100.00;102908.25;4989557;28;20041;-77
2022/02/26 05:18:44;;;;;;;49.25;6.57;;;;;;;-0.19;100.00;102910.03;4992074;28;20312;-77
2022/02/26 05:21:09;;;;;;;47.75;6.68;;;;;;;-0.28;100.00;102907.63;4994582;28;20040;-76
2022/02/26 05:23:36;;;;;;;51.58;7.43;;;;;;;-0.21;100.00;102920.38;4990823;28;20041;-77
2022/02/26 05:26:02;;;;;;;44.35;6.55;;;;;;;-0.20;100.00;102928.97;4994518;28;20116;-76
2022/02/26 05:28:27;;;;;;;51.00;6.63;;;;;;;-0.24;100.00;102932.47;5002832;28;20092;-77
2022/02/26 05:30:53;;;;;;;49.75;6.18;;;;;;;-0.30;100.00;102943.75;5006952;28;20435;-76
2022/02/26 05:33:19;;;;;;;42.38;5.75;;;;;;;-0.32;100.00;102934.31;4994385;28;20447;-76
2022/02/26 05:35:44;;;;;;;52.92;5.95;;;;;;;-0.31;100.00;102946.34;4985458;28;20069;-77
2022/02/26 05:38:10;;;;;;;48.13;5.50;;;;;;;-0.24;100.00;102945.38;4996253;28;20069;-78
2022/02/26 05:40:36;;;;;;;51.83;6.72;;;;;;;-0.34;100.00;102942.09;4996091;28;20475;-77
2022/02/26 05:43:02;;;;;;;49.25;5.07;;;;;;;-0.32;100.00;102944.63;4989686;28;20099;-77
2022/02/26 05:45:27;;;;;;;51.95;5.57;;;;;;;-0.46;100.00;102949.97;4989571;28;20617;-76
2022/02/26 05:47:53;;;;;;;47.85;5.05;;;;;;;-0.45;100.00;102956.84;4994251;28;20064;-78
2022/02/26 05:50:19;;;;;;;60.08;6.80;;;;;;;-0.50;100.00;102967.22;4998838;28;20109;-78
2022/02/26 05:52:45;;;;;;;34.38;4.63;;;;;;;-0.50;100.00;102963.78;5023335;28;20045;-77
2022/02/26 05:55:10;;;;;;;49.33;5.63;;;;;;;-0.50;100.00;102977.53;4993845;28;20081;-77
2022/02/26 05:57:36;;;;;;;39.97;5.78;;;;;;;-0.56;100.00;102982.78;4990671;28;20030;-78
2022/02/26 06:00:05;;;;;;;55.30;6.22;;;;;;;-0.47;100.00;102986.94;4972703;28;20042;-78
2022/02/26 06:02:31;;;;;;;35.28;4.47;;;;;;;-0.56;100.00;102982.78;4989405;28;20038;-78
2022/02/26 06:04:56;;;;;;;35.28;5.57;;;;;;;-0.43;100.00;102993.78;5006819;28;20060;-77
2022/02/26 06:07:22;;;;;;;35.75;5.15;;;;;;;-0.52;100.00;102991.31;4992132;28;21027;-77
2022/02/26 06:09:47;;;;;;;38.80;4.82;;;;;;;-0.60;100.00;103004.31;4986995;28;20042;-76
2022/02/26 06:12:13;;;;;;;47.90;5.13;;;;;;;-0.66;100.00;103004.34;4979171;28;20025;-77
2022/02/26 06:14:39;;;;;;;38.63;4.88;;;;;;;-0.69;100.00;103000.09;4971755;28;20157;-77
2022/02/26 06:17:05;;;;;;;48.00;4.70;;;;;;;-0.69;100.00;103012.16;4990324;28;20575;-76
2022/02/26 06:19:30;;;;;;;45.47;5.95;;;;;;;-0.71;100.00;103011.31;5003006;28;20045;-76
2022/02/26 06:21:56;;;;;;;49.20;5.47;;;;;;;-0.64;100.00;103018.09;4991208;28;20026;-77
2022/02/26 06:24:22;;;;;;;44.17;4.68;;;;;;;-0.66;100.00;103027.56;4987414;28;20076;-76
2022/02/26 06:26:47;;;;;;;45.25;5.15;;;;;;;-0.63;100.00;103038.69;4980745;28;20038;-76
2022/02/26 06:29:13;;;;;;;44.13;5.82;;;;;;;-0.64;100.00;103033.53;4988604;28;20034;-77
2022/02/26 06:31:38;;;;;;;49.22;6.05;;;;;;;-0.63;100.00;103045.56;4997960;28;20034;-77
2022/02/26 06:34:04;;;;;;;62.50;6.45;;;;;;;-0.57;100.00;103035.19;4993260;28;20041;-76
2022/02/26 06:36:31;;;;;;;53.65;5.75;;;;;;;-0.56;100.00;103046.38;4990985;28;20132;-78
2022/02/26 06:38:57;;;;;;;46.20;5.38;;;;;;;-0.59;100.00;103035.19;5006265;28;20061;-77
2022/02/26 06:41:22;;;;;;;41.83;5.25;;;;;;;-0.40;100.00;103050.44;5006659;28;20782;-78
2022/02/26 06:43:48;;;;;;;51.80;5.68;;;;;;;-0.42;100.00;103059.94;4995431;28;20556;-76
2022/02/26 06:46:13;;;;;;;40.53;5.57;;;;;;;-0.36;100.00;103072.75;4972884;28;20037;-77
2022/02/26 06:48:39;;;;;;;69.00;6.35;;;;;;;-0.37;100.00;103070.22;4994753;28;20041;-78
2022/02/26 06:51:05;;;;;;;68.75;5.38;;;;;;;-0.33;100.00;103080.47;4992169;28;20061;-77
2022/02/26 06:53:31;;;;;;;51.72;5.57;;;;;;;-0.27;100.00;103077.78;4973638;28;20034;-77
2022/02/26 06:55:56;;;;;;;51.25;6.35;;;;;;;-0.24;100.00;103079.50;4967745;28;20058;-77
2022/02/26 06:58:22;;;;;;;45.38;4.70;;;;;;;-0.26;100.00;103082.09;4992993;28;20495;-77
2022/02/26 07:00:48;;;;;;;46.95;5.22;;;;;;;-0.14;100.00;103082.81;4986077;28;20034;-77
2022/02/26 07:03:14;;;;;;;46.53;5.57;;;;;;;-0.12;100.00;103087.06;5005572;28;20038;-76
2022/02/26 07:05:39;;;;;;;54.63;5.80;;;;;;;0.05;100.00;103088.56;5019360;28;20407;-79
2022/02/26 07:08:05;;;;;;;42.85;5.68;;;;;;;0.15;100.00;103095.31;5007964;28;20042;-77
2022/02/26 07:10:31;;;;;;;54.60;6.10;;;;;;;0.29;100.00;103100.28;4988484;28;20044;-78
2022/02/26 07:12:56;;;;;;;42.95;5.57;;;;;;;0.39;100.00;103101.84;4989071;28;20049;-79
2022/02/26 07:15:22;;;;;;;52.97;5.53;;;;;;;0.65;100.00;103104.03;5005255;28;20041;-78
2022/02/26 07:17:48;;;;;;;45.63;5.07;;;;;;;0.69;100.00;103105.69;4983072;28;20431;-75
2022/02/26 07:20:13;;;;;;;52.53;6.18;;;;;;;0.76;100.00;103101.28;4969293;28;20030;-77
2022/02/26 07:22:39;;;;;;;44.92;5.38;;;;;;;0.91;100.00;103111.38;4987016;28;20143;-74
2022/02/26 07:25:05;;;;;;;47.83;5.07;;;;;;;1.08;100.00;103107.66;4974154;28;20149;-75
2022/02/26 07:27:31;;;;;;;43.38;4.25;;;;;;;1.12;100.00;103117.88;4966354;28;20562;-76
2022/02/26 07:29:57;;;;;;;48.13;4.72;;;;;;;1.24;100.00;103116.81;5003099;28;20034;-75
2022/02/26 07:32:22;;;;;;;53.40;5.38;;;;;;;1.34;100.00;103123.53;4988551;28;20113;-76
2022/02/26 07:34:48;;;;;;;31.77;4.47;;;;;;;1.41;100.00;103144.09;4983045;28;20077;-77
2022/02/26 07:37:14;;;;;;;49.75;4.53;;;;;;;1.59;100.00;103148.94;4999718;28;20034;-76
2022/02/26 07:39:39;;;;;;;47.25;4.82;;;;;;;1.64;100.00;103151.41;4970454;28;20510;-76
2022/02/26 07:42:05;;;;;;;42.10;5.53;;;;;;;1.68;100.00;103151.34;4981648;28;20092;-77
2022/02/26 07:44:32;;;;;;;37.00;4.82;;;;;;;1.73;100.00;103144.34;5004466;28;20041;-77
2022/02/26 07:46:57;;;;;;;42.97;4.50;;;;;;;1.98;100.00;103150.75;5004453;28;20036;-77
2022/02/26 07:49:23;;;;;;;38.65;4.70;;;;;;;1.98;100.00;103163.69;4990368;28;20072;-76
2022/02/26 07:51:48;;;;;;;41.22;4.45;;;;;;;2.09;100.00;103161.72;4969688;28;20133;-79
2022/02/26 07:54:14;;;;;;;46.45;5.10;;;;;;;2.12;100.00;103159.09;4999534;28;20088;-77
2022/02/26 07:56:40;;;;;;;39.92;5.05;;;;;;;2.22;100.00;103172.69;5001813;28;20064;-77
2022/02/26 07:59:08;;;;;;;42.92;5.22;;;;;;;2.33;100.00;103165.53;4984044;28;20038;-78
2022/02/26 08:01:33;;;;;;;38.50;5.18;;;;;;;2.45;100.00;103180.81;5001466;28;20030;-76
2022/02/26 08:03:59;;;;;;;45.60;5.75;;;;;;;2.48;100.00;103180.75;4999775;28;20092;-76
2022/02/26 08:06:24;;;;;;;43.72;5.53;;;;;;;2.56;100.00;103180.56;5000485;28;20461;-77
2022/02/26 08:08:50;;;;;;;35.92;5.03;;;;;;;2.58;100.00;103178.81;5005395;28;20033;-76
2022/02/26 08:11:16;;;;;;;47.63;6.15;;;;;;;2.69;100.00;103194.97;4987862;28;20046;-76
2022/02/26 08:13:42;;;;;;;42.97;5.18;;;;;;;2.84;100.00;103198.91;5001478;28;20038;-76
2022/02/26 08:16:10;;;;;;;36.50;4.60;;;;;;;2.93;100.00;103211.66;4978742;28;20757;-77
2022/02/26 08:18:36;;;;;;;49.72;5.63;;;;;;;2.95;100.00;103208.19;4986491;28;20181;-79
2022/02/26 08:21:03;;;;;;;43.05;5.70;;;;;;;2.99;100.00;103218.44;4976768;28;20575;-77
2022/02/26 08:23:30;;;;;;;39.30;5.47;;;;;;;3.08;100.00;103227.75;4988482;28;20562;-74
2022/02/26 08:25:55;;;;;;;43.05;5.28;;;;;;;3.11;100.00;103214.72;5006599;28;20049;-77
2022/02/26 08:28:21;;;;;;;35.78;5.80;;;;;;;3.20;100.00;103224.00;4981142;28;20051;-76
2022/02/26 08:30:47;;;;;;;45.63;5.90;;;;;;;3.15;100.00;103226.72;4999121;28;20459;-78
2022/02/26 08:33:12;;;;;;;42.30;5.65;;;;;;;3.22;100.00;103224.81;4988885;28;20515;-76
2022/02/26 08:35:38;;;;;;;41.85;5.47;;;;;;;3.26;100.00;103232.50;4987151;28;20037;-77
2022/02/26 08:38:04;;;;;;;32.33;4.40;;;;;;;3.40;100.00;103239.94;4991485;28;20416;-76
2022/02/26 08:40:29;;;;;;;44.55;6.10;;;;;;;3.50;100.00;103233.63;5002419;28;20049;-76
2022/02/26 08:42:55;;;;;;;40.08;5.20;;;;;;;3.53;100.00;103245.66;4996378;28;20045;-77
2022/02/26 08:45:21;;;;;;;40.92;4.78;;;;;;;3.59;100.00;103242.06;4991682;28;20029;-77
2022/02/26 08:47:47;;;;;;;47.50;5.38;;;;;;;3.69;100.00;103246.09;5002211;28;20034;-76
2022/02/26 08:50:14;;;;;;;33.20;4.70;;;;;;;3.78;100.00;103255.41;5004176;28;20474;-77
2022/02/26 08:52:40;;;;;;;44.30;4.85;;;;;;;3.77;100.00;103264.06;4986532;28;20149;-76
2022/02/26 08:55:07;;;;;;;35.67;4.78;;;;;;;3.73;100.00;103255.53;4989188;28;20132;-77
2022/02/26 08:57:33;;;;;;;38.92;4.70;;;;;;;3.82;100.00;103260.47;4990588;28;20034;-78
2022/02/26 08:59:58;;;;;;;38.25;5.35;;;;;;;3.82;100.00;103263.06;5004518;28;20338;-76
2022/02/26 09:02:25;;;;;;;35.83;4.40;;;;;;;3.93;100.00;103264.53;4992288;28;20088;-76
2022/02/26 09:04:51;;;;;;;42.95;4.63;;;;;;;3.93;100.00;103267.97;4999394;28;20042;-76
2022/02/26 09:07:16;;;;;;;39.95;4.35;;;;;;;4.03;100.00;103276.38;5005485;28;20049;-78
2022/02/26 09:09:42;;;;;;;34.65;4.38;;;;;;;4.02;100.00;103267.72;4984843;28;20046;-78
2022/02/26 09:12:08;;;;;;;36.13;4.55;;;;;;;4.15;100.00;103281.25;5004019;28;20046;-77
2022/02/26 09:14:34;;;;;;;35.60;4.15;;;;;;;4.20;100.00;103283.69;5013037;28;20038;-77
2022/02/26 09:16:59;;;;;;;45.28;5.15;;;;;;;4.27;100.00;103286.06;5004165;28;20542;-77
2022/02/26 09:19:25;;;;;;;33.22;3.85;;;;;;;4.33;100.00;103289.41;5007677;28;20038;-78
2022/02/26 09:21:50;;;;;;;28.00;4.85;;;;;;;4.33;100.00;103279.00;4992071;28;20030;-78
2022/02/26 09:24:16;;;;;;;32.63;4.93;;;;;;;4.48;100.00;103294.16;5006582;28;20053;-76
2022/02/26 09:26:42;;;;;;;31.25;4.35;;;;;;;4.45;98.13;103286.47;5005273;28;20590;-76
2022/02/26 09:29:07;;;;;;;34.45;4.10;;;;;;;4.46;100.00;103294.22;4986758;28;20105;-77
2022/02/26 09:31:33;;;;;;;28.65;3.90;;;;;;;4.55;100.00;103300.88;5002081;28;20034;-78
2022/02/26 09:33:59;;;;;;;31.15;4.70;;;;;;;4.58;100.00;103298.22;5007014;28;20041;-77
2022/02/26 09:36:24;;;;;;;31.30;3.97;;;;;;;4.65;99.36;103294.53;4984415;28;20176;-76
2022/02/26 09:38:50;;;;;;;24.25;3.58;;;;;;;4.73;96.98;103296.91;4971197;28;20056;-75
2022/02/26 09:41:16;;;;;;;41.10;4.47;;;;;;;4.77;99.54;103295.06;4995343;28;20037;-76
2022/02/26 09:43:41;;;;;;;29.55;3.95;;;;;;;4.82;96.03;103295.75;5002554;28;20502;-77
2022/02/26 09:46:07;;;;;;;26.33;3.63;;;;;;;4.88;97.41;103306.00;4995984;28;20700;-76
2022/02/26 09:48:34;;;;;;;25.55;3.38;;;;;;;4.88;96.89;103306.00;4985241;28;20023;-78
2022/02/26 09:51:00;;;;;;;24.42;3.85;;;;;;;4.99;95.32;103309.13;4999774;28;20177;-77
2022/02/26 09:53:26;;;;;;;22.38;3.03;;;;;;;5.00;94.86;103313.41;4995975;28;20038;-77
2022/02/26 09:55:54;;;;;;;29.00;4.00;;;;;;;5.06;91.93;103320.19;5003616;28;20111;-78
2022/02/26 09:58:20;;;;;;;27.13;3.78;;;;;;;5.09;92.10;103319.25;4985906;28;20037;-76
2022/02/26 10:00:47;;;;;;;28.23;3.90;;;;;;;4.99;92.29;103318.66;4997924;28;20042;-77
2022/02/26 10:03:27;;;;;;;27.65;3.40;;;;;;;5.11;92.99;103320.06;4998080;28;20042;-78
2022/02/26 10:06:09;;;;;;;34.47;4.07;;;;;;;5.09;89.72;103327.06;4994235;28;20037;-76
2022/02/26 10:08:40;;;;;;;21.02;2.95;;;;;;;5.19;90.95;103333.66;4996138;28;20041;-74
2022/02/26 10:11:06;;;;;;;25.23;3.25;;;;;;;5.14;90.29;103331.22;4994824;28;20543;-75
2022/02/26 10:13:46;;;;;;;26.58;3.83;;;;;;;5.40;90.64;103337.34;5000242;28;20475;-77
2022/02/26 10:16:12;;;;;;;27.92;3.28;;;;;;;5.49;88.13;103342.25;4987388;28;20100;-75
2022/02/26 10:18:52;;;;;;;19.67;3.00;;;;;;;5.38;88.07;103353.00;4984968;28;20026;-76
2022/02/26 10:21:29;;;;;;;21.38;3.20;;;;;;;5.50;88.54;103346.56;4996828;28;21777;-77
2022/02/26 10:23:54;;;;;;;24.52;3.22;;;;;;;5.53;85.67;103346.44;5006390;28;20034;-75
2022/02/26 10:26:26;;;;;;;22.00;2.83;;;;;;;5.68;86.84;103346.84;4999967;28;20036;-77
2022/02/26 10:29:10;;;;;;;24.48;3.63;;;;;;;5.79;86.09;103356.00;4988224;28;20037;-78
2022/02/26 10:31:48;;;;;;;20.38;3.25;;;;;;;5.90;86.10;103350.44;4999762;28;20030;-78
2022/02/26 10:34:26;;;;;;;28.50;3.33;;;;;;;5.98;86.65;103347.59;5023716;28;20025;-76
2022/02/26 10:37:13;;;;;;;16.15;3.00;;;;;;;6.15;85.39;103354.84;4992198;28;20038;-77
2022/02/26 10:39:50;;;;;;;17.92;2.83;;;;;;;6.45;84.37;103359.88;5005058;28;20068;-77
2022/02/26 10:42:33;;;;;;;23.77;3.25;;;;;;;6.34;81.96;103355.03;5007923;28;20249;-76
2022/02/26 10:45:22;;;;;;;22.90;3.20;;;;;;;6.59;81.32;103362.81;4993960;28;20056;-76
2022/02/26 10:47:48;;;;;;;19.40;3.00;;;;;;;6.60;80.93;103356.69;4990482;28;20046;-77
2022/02/26 10:50:25;;;;;;;18.55;2.40;;;;;;;6.74;81.97;103356.19;5003649;28;20030;-78
2022/02/26 10:53:02;;;;;;;16.15;3.20;;;;;;;6.67;80.08;103357.31;5007816;28;20033;-76
2022/02/26 10:55:57;;;;;;;13.90;2.88;;;;;;;6.71;77.42;103351.94;4988708;28;20091;-77
2022/02/26 10:58:25;;;;;;;14.57;2.30;;;;;;;6.79;74.63;103351.66;4970152;28;20042;-78
2022/02/26 11:00:52;;;;;;;24.90;2.92;;;;;;;6.80;76.23;103354.19;4993676;28;20042;-78
2022/02/26 11:03:18;;;;;;;19.08;2.70;;;;;;;6.71;75.77;103354.53;4992854;28;20034;-77
2022/02/26 11:05:45;;;;;;;19.45;2.42;;;;;;;6.67;75.97;103347.75;5003395;28;20049;-76
2022/02/26 11:08:12;;;;;;;15.70;2.63;;;;;;;6.75;75.73;103340.47;5001383;28;20041;-77
2022/02/26 11:10:44;;;;;;;17.80;2.78;;;;;;;6.76;75.55;103351.75;5009770;28;20048;-77
2022/02/26 11:13:12;;;;;;;16.80;2.75;;;;;;;7.06;74.89;103347.13;5013582;28;20030;-77
2022/02/26 11:15:38;;;;;;;17.83;2.75;;;;;;;7.12;75.23;103346.91;5009584;28;20041;-76